Herron Island, Washington
Current Conditions -  °F | °C
As of 4:53 AM on Saturday 25 Oct 2014 (Local Time) from KTIW Reporting Station
Clear Clear  
Wind Chill: 50°   Ceiling: Unl
Heat Index: 50°   Visibility: 10mi
Dew Point: 47°   Wind: 9mph
Humidity: 89%   Direction: 360°N
Pressure: 29.52"   Gusts: NA
Location:  47.264°N, 122.772°W
Report Text: KTIW 251153Z AUTO 36008KT 10SM CLR 10/08 A2952 RMK AO2 SLP996 60000 70023 T01000083 10106 20094 58045
Loading
Personal Weather Stations






























Interactive Weather Map
Tropical Storm Tracking
New forecast layout! Learn more

10-Day Weather Forecast

Advertisements
Track Severe Weather on mobile